sensor_id;sensor_type;location;lat;lon;timestamp;P1;durP1;ratioP1;P2;durP2;ratioP2
67274;SDS011;55463;52.324;5.122;2022-11-13T00:00:09;25.52;;;13.40;;
67274;SDS011;55463;52.324;5.122;2022-11-13T00:02:35;18.30;;;11.85;;
67274;SDS011;55463;52.324;5.122;2022-11-13T00:05:00;23.65;;;12.00;;
67274;SDS011;55463;52.324;5.122;2022-11-13T00:07:26;26.98;;;12.65;;
67274;SDS011;55463;52.324;5.122;2022-11-13T00:09:51;23.20;;;11.55;;
67274;SDS011;55463;52.324;5.122;2022-11-13T00:12:17;21.73;;;12.32;;
67274;SDS011;55463;52.324;5.122;2022-11-13T00:14:42;23.05;;;11.27;;
67274;SDS011;55463;52.324;5.122;2022-11-13T00:17:08;22.13;;;11.65;;
67274;SDS011;55463;52.324;5.122;2022-11-13T00:19:33;21.75;;;11.43;;
67274;SDS011;55463;52.324;5.122;2022-11-13T00:21:58;18.90;;;11.18;;
67274;SDS011;55463;52.324;5.122;2022-11-13T00:24:24;28.10;;;13.77;;
67274;SDS011;55463;52.324;5.122;2022-11-13T00:26:49;29.70;;;13.30;;
67274;SDS011;55463;52.324;5.122;2022-11-13T00:29:15;27.13;;;12.73;;
67274;SDS011;55463;52.324;5.122;2022-11-13T00:31:40;24.25;;;13.10;;
67274;SDS011;55463;52.324;5.122;2022-11-13T00:34:06;28.65;;;14.02;;
67274;SDS011;55463;52.324;5.122;2022-11-13T00:36:31;27.67;;;13.35;;
67274;SDS011;55463;52.324;5.122;2022-11-13T00:38:56;29.00;;;12.90;;
67274;SDS011;55463;52.324;5.122;2022-11-13T00:41:22;26.15;;;13.10;;
67274;SDS011;55463;52.324;5.122;2022-11-13T00:43:48;24.58;;;12.95;;
67274;SDS011;55463;52.324;5.122;2022-11-13T00:46:14;27.77;;;12.93;;
67274;SDS011;55463;52.324;5.122;2022-11-13T00:48:39;22.60;;;12.07;;
67274;SDS011;55463;52.324;5.122;2022-11-13T00:51:05;21.35;;;11.05;;
67274;SDS011;55463;52.324;5.122;2022-11-13T00:53:30;23.88;;;12.15;;
67274;SDS011;55463;52.324;5.122;2022-11-13T00:55:55;21.85;;;11.80;;
67274;SDS011;55463;52.324;5.122;2022-11-13T00:58:21;21.52;;;11.43;;
67274;SDS011;55463;52.324;5.122;2022-11-13T01:00:47;19.63;;;11.23;;
67274;SDS011;55463;52.324;5.122;2022-11-13T01:03:13;21.50;;;11.45;;
67274;SDS011;55463;52.324;5.122;2022-11-13T01:05:40;18.95;;;11.00;;
67274;SDS011;55463;52.324;5.122;2022-11-13T01:08:07;17.83;;;10.85;;
67274;SDS011;55463;52.324;5.122;2022-11-13T01:10:34;16.90;;;9.93;;
67274;SDS011;55463;52.324;5.122;2022-11-13T01:13:04;18.33;;;10.82;;
67274;SDS011;55463;52.324;5.122;2022-11-13T01:15:29;18.63;;;10.13;;
67274;SDS011;55463;52.324;5.122;2022-11-13T01:17:55;16.17;;;10.35;;
67274;SDS011;55463;52.324;5.122;2022-11-13T01:20:21;25.58;;;11.20;;
67274;SDS011;55463;52.324;5.122;2022-11-13T01:22:48;18.52;;;9.63;;
67274;SDS011;55463;52.324;5.122;2022-11-13T01:25:13;22.42;;;10.55;;
67274;SDS011;55463;52.324;5.122;2022-11-13T01:27:39;18.30;;;11.18;;
67274;SDS011;55463;52.324;5.122;2022-11-13T01:30:05;23.50;;;11.20;;
67274;SDS011;55463;52.324;5.122;2022-11-13T01:32:30;14.65;;;9.63;;
67274;SDS011;55463;52.324;5.122;2022-11-13T01:34:56;16.30;;;10.38;;
67274;SDS011;55463;52.324;5.122;2022-11-13T01:37:21;21.08;;;10.98;;
67274;SDS011;55463;52.324;5.122;2022-11-13T01:39:47;19.90;;;10.23;;
67274;SDS011;55463;52.324;5.122;2022-11-13T01:42:12;17.73;;;10.23;;
67274;SDS011;55463;52.324;5.122;2022-11-13T01:44:48;20.90;;;11.23;;
67274;SDS011;55463;52.324;5.122;2022-11-13T01:47:16;16.85;;;9.75;;
67274;SDS011;55463;52.324;5.122;2022-11-13T01:49:42;17.73;;;9.40;;
67274;SDS011;55463;52.324;5.122;2022-11-13T01:52:10;18.63;;;9.05;;
67274;SDS011;55463;52.324;5.122;2022-11-13T01:54:44;18.50;;;10.13;;
67274;SDS011;55463;52.324;5.122;2022-11-13T01:57:12;15.20;;;9.18;;
67274;SDS011;55463;52.324;5.122;2022-11-13T01:59:41;20.05;;;9.90;;
67274;SDS011;55463;52.324;5.122;2022-11-13T02:04:36;18.08;;;9.48;;
67274;SDS011;55463;52.324;5.122;2022-11-13T02:07:06;18.45;;;9.63;;
67274;SDS011;55463;52.324;5.122;2022-11-13T02:09:37;17.30;;;8.90;;
67274;SDS011;55463;52.324;5.122;2022-11-13T02:12:05;17.02;;;9.93;;
67274;SDS011;55463;52.324;5.122;2022-11-13T02:14:34;15.48;;;9.23;;
67274;SDS011;55463;52.324;5.122;2022-11-13T02:17:03;18.10;;;9.05;;
67274;SDS011;55463;52.324;5.122;2022-11-13T02:19:32;14.35;;;8.68;;
67274;SDS011;55463;52.324;5.122;2022-11-13T02:25:23;13.88;;;8.25;;
67274;SDS011;55463;52.324;5.122;2022-11-13T02:27:50;13.73;;;8.88;;
67274;SDS011;55463;52.324;5.122;2022-11-13T02:32:50;16.15;;;8.57;;
67274;SDS011;55463;52.324;5.122;2022-11-13T02:35:19;15.48;;;9.23;;
67274;SDS011;55463;52.324;5.122;2022-11-13T02:37:46;16.90;;;8.77;;
67274;SDS011;55463;52.324;5.122;2022-11-13T02:40:12;15.73;;;9.02;;
67274;SDS011;55463;52.324;5.122;2022-11-13T02:42:38;17.88;;;9.43;;
67274;SDS011;55463;52.324;5.122;2022-11-13T02:45:04;14.45;;;8.88;;
67274;SDS011;55463;52.324;5.122;2022-11-13T02:47:31;17.90;;;9.88;;
67274;SDS011;55463;52.324;5.122;2022-11-13T02:49:56;16.30;;;9.18;;
67274;SDS011;55463;52.324;5.122;2022-11-13T02:52:22;16.13;;;9.85;;
67274;SDS011;55463;52.324;5.122;2022-11-13T02:54:47;17.80;;;8.60;;
67274;SDS011;55463;52.324;5.122;2022-11-13T02:57:12;16.30;;;8.88;;
67274;SDS011;55463;52.324;5.122;2022-11-13T02:59:38;16.77;;;9.50;;
67274;SDS011;55463;52.324;5.122;2022-11-13T03:02:03;17.95;;;9.48;;
67274;SDS011;55463;52.324;5.122;2022-11-13T03:04:28;17.48;;;10.15;;
67274;SDS011;55463;52.324;5.122;2022-11-13T03:06:54;16.77;;;9.70;;
67274;SDS011;55463;52.324;5.122;2022-11-13T03:09:19;15.23;;;9.35;;
67274;SDS011;55463;52.324;5.122;2022-11-13T03:11:45;18.20;;;11.45;;
67274;SDS011;55463;52.324;5.122;2022-11-13T03:14:10;19.63;;;11.23;;
67274;SDS011;55463;52.324;5.122;2022-11-13T03:16:36;17.52;;;11.15;;
67274;SDS011;55463;52.324;5.122;2022-11-13T03:19:02;17.88;;;10.88;;
67274;SDS011;55463;52.324;5.122;2022-11-13T03:21:27;18.52;;;10.95;;
67274;SDS011;55463;52.324;5.122;2022-11-13T03:23:54;18.27;;;10.38;;
67274;SDS011;55463;52.324;5.122;2022-11-13T03:26:20;19.20;;;9.48;;
67274;SDS011;55463;52.324;5.122;2022-11-13T03:28:45;18.48;;;9.73;;
67274;SDS011;55463;52.324;5.122;2022-11-13T03:31:10;15.63;;;9.43;;
67274;SDS011;55463;52.324;5.122;2022-11-13T03:33:36;16.90;;;9.30;;
67274;SDS011;55463;52.324;5.122;2022-11-13T03:36:02;19.25;;;10.00;;
67274;SDS011;55463;52.324;5.122;2022-11-13T03:38:28;15.27;;;9.27;;
67274;SDS011;55463;52.324;5.122;2022-11-13T03:40:53;18.13;;;9.38;;
67274;SDS011;55463;52.324;5.122;2022-11-13T03:43:19;17.95;;;9.50;;
67274;SDS011;55463;52.324;5.122;2022-11-13T03:45:44;16.67;;;10.20;;
67274;SDS011;55463;52.324;5.122;2022-11-13T03:48:11;18.27;;;9.73;;
67274;SDS011;55463;52.324;5.122;2022-11-13T03:50:38;14.60;;;9.27;;
67274;SDS011;55463;52.324;5.122;2022-11-13T03:53:04;14.73;;;9.65;;
67274;SDS011;55463;52.324;5.122;2022-11-13T03:55:29;13.05;;;8.88;;
67274;SDS011;55463;52.324;5.122;2022-11-13T03:57:55;16.17;;;9.50;;
67274;SDS011;55463;52.324;5.122;2022-11-13T04:00:20;16.30;;;8.95;;
67274;SDS011;55463;52.324;5.122;2022-11-13T04:02:45;16.00;;;9.00;;
67274;SDS011;55463;52.324;5.122;2022-11-13T04:05:11;15.98;;;8.95;;
67274;SDS011;55463;52.324;5.122;2022-11-13T04:07:36;16.35;;;9.15;;
67274;SDS011;55463;52.324;5.122;2022-11-13T04:10:02;14.05;;;9.10;;
67274;SDS011;55463;52.324;5.122;2022-11-13T04:12:27;12.90;;;8.52;;
67274;SDS011;55463;52.324;5.122;2022-11-13T04:14:53;14.85;;;9.48;;
67274;SDS011;55463;52.324;5.122;2022-11-13T04:17:18;13.13;;;8.75;;
67274;SDS011;55463;52.324;5.122;2022-11-13T04:19:43;14.00;;;8.55;;
67274;SDS011;55463;52.324;5.122;2022-11-13T04:22:09;13.35;;;8.57;;
67274;SDS011;55463;52.324;5.122;2022-11-13T04:24:34;11.82;;;7.88;;
67274;SDS011;55463;52.324;5.122;2022-11-13T04:26:59;11.93;;;8.48;;
67274;SDS011;55463;52.324;5.122;2022-11-13T04:29:25;16.73;;;9.93;;
67274;SDS011;55463;52.324;5.122;2022-11-13T04:31:50;16.50;;;9.13;;
67274;SDS011;55463;52.324;5.122;2022-11-13T04:34:15;15.85;;;8.85;;
67274;SDS011;55463;52.324;5.122;2022-11-13T04:36:41;15.95;;;9.73;;
67274;SDS011;55463;52.324;5.122;2022-11-13T04:39:06;17.60;;;9.02;;
67274;SDS011;55463;52.324;5.122;2022-11-13T04:41:32;13.65;;;8.02;;
67274;SDS011;55463;52.324;5.122;2022-11-13T04:44:16;11.57;;;8.13;;
67274;SDS011;55463;52.324;5.122;2022-11-13T04:46:41;14.68;;;8.45;;
67274;SDS011;55463;52.324;5.122;2022-11-13T04:49:07;17.17;;;9.02;;
67274;SDS011;55463;52.324;5.122;2022-11-13T04:51:32;14.45;;;9.05;;
67274;SDS011;55463;52.324;5.122;2022-11-13T04:53:57;14.85;;;9.10;;
67274;SDS011;55463;52.324;5.122;2022-11-13T04:56:23;14.68;;;8.63;;
67274;SDS011;55463;52.324;5.122;2022-11-13T04:58:48;16.67;;;9.10;;
67274;SDS011;55463;52.324;5.122;2022-11-13T05:01:14;14.88;;;9.38;;
67274;SDS011;55463;52.324;5.122;2022-11-13T05:03:39;16.48;;;9.38;;
67274;SDS011;55463;52.324;5.122;2022-11-13T05:06:05;14.90;;;9.35;;
67274;SDS011;55463;52.324;5.122;2022-11-13T05:08:32;12.18;;;8.40;;
67274;SDS011;55463;52.324;5.122;2022-11-13T05:10:58;14.63;;;9.32;;
67274;SDS011;55463;52.324;5.122;2022-11-13T05:13:24;21.27;;;10.18;;
67274;SDS011;55463;52.324;5.122;2022-11-13T05:15:49;12.23;;;9.43;;
67274;SDS011;55463;52.324;5.122;2022-11-13T05:18:15;13.93;;;9.25;;
67274;SDS011;55463;52.324;5.122;2022-11-13T05:20:40;15.25;;;9.10;;
67274;SDS011;55463;52.324;5.122;2022-11-13T05:23:05;13.52;;;9.13;;
67274;SDS011;55463;52.324;5.122;2022-11-13T05:25:31;17.42;;;9.65;;
67274;SDS011;55463;52.324;5.122;2022-11-13T05:27:56;19.38;;;8.90;;
67274;SDS011;55463;52.324;5.122;2022-11-13T05:30:22;16.27;;;9.25;;
67274;SDS011;55463;52.324;5.122;2022-11-13T05:32:48;15.45;;;9.25;;
67274;SDS011;55463;52.324;5.122;2022-11-13T05:35:14;14.65;;;8.55;;
67274;SDS011;55463;52.324;5.122;2022-11-13T05:37:39;12.98;;;8.23;;
67274;SDS011;55463;52.324;5.122;2022-11-13T05:40:04;14.25;;;8.75;;
67274;SDS011;55463;52.324;5.122;2022-11-13T05:42:30;13.82;;;9.07;;
67274;SDS011;55463;52.324;5.122;2022-11-13T05:44:55;15.95;;;9.38;;
67274;SDS011;55463;52.324;5.122;2022-11-13T05:47:21;13.73;;;8.80;;
67274;SDS011;55463;52.324;5.122;2022-11-13T05:49:46;15.60;;;8.95;;
67274;SDS011;55463;52.324;5.122;2022-11-13T05:52:12;14.93;;;9.98;;
67274;SDS011;55463;52.324;5.122;2022-11-13T05:54:37;18.83;;;9.40;;
67274;SDS011;55463;52.324;5.122;2022-11-13T05:57:02;14.95;;;9.88;;
67274;SDS011;55463;52.324;5.122;2022-11-13T05:59:28;17.48;;;9.98;;
67274;SDS011;55463;52.324;5.122;2022-11-13T06:01:53;16.98;;;9.63;;
67274;SDS011;55463;52.324;5.122;2022-11-13T06:04:18;13.60;;;9.38;;
67274;SDS011;55463;52.324;5.122;2022-11-13T06:06:44;17.85;;;9.48;;
67274;SDS011;55463;52.324;5.122;2022-11-13T06:09:12;14.52;;;9.57;;
67274;SDS011;55463;52.324;5.122;2022-11-13T06:11:41;14.93;;;9.35;;
67274;SDS011;55463;52.324;5.122;2022-11-13T06:14:07;13.70;;;8.95;;
67274;SDS011;55463;52.324;5.122;2022-11-13T06:16:33;18.50;;;10.38;;
67274;SDS011;55463;52.324;5.122;2022-11-13T06:19:01;16.25;;;9.32;;
67274;SDS011;55463;52.324;5.122;2022-11-13T06:21:28;16.42;;;10.68;;
67274;SDS011;55463;52.324;5.122;2022-11-13T06:23:58;19.90;;;11.45;;
67274;SDS011;55463;52.324;5.122;2022-11-13T06:26:27;15.63;;;9.75;;
67274;SDS011;55463;52.324;5.122;2022-11-13T06:28:55;18.90;;;11.68;;
67274;SDS011;55463;52.324;5.122;2022-11-13T06:31:25;16.02;;;11.10;;
67274;SDS011;55463;52.324;5.122;2022-11-13T06:33:52;23.67;;;13.30;;
67274;SDS011;55463;52.324;5.122;2022-11-13T06:36:19;13.98;;;10.68;;
67274;SDS011;55463;52.324;5.122;2022-11-13T06:38:52;22.05;;;12.35;;
67274;SDS011;55463;52.324;5.122;2022-11-13T06:41:21;25.42;;;13.02;;
67274;SDS011;55463;52.324;5.122;2022-11-13T06:43:48;17.52;;;12.40;;
67274;SDS011;55463;52.324;5.122;2022-11-13T06:46:32;22.65;;;10.57;;
67274;SDS011;55463;52.324;5.122;2022-11-13T06:48:57;16.67;;;11.57;;
67274;SDS011;55463;52.324;5.122;2022-11-13T06:51:23;20.50;;;11.20;;
67274;SDS011;55463;52.324;5.122;2022-11-13T06:53:51;15.63;;;10.43;;
67274;SDS011;55463;52.324;5.122;2022-11-13T06:56:17;18.35;;;11.43;;
67274;SDS011;55463;52.324;5.122;2022-11-13T06:58:43;14.77;;;9.52;;
67274;SDS011;55463;52.324;5.122;2022-11-13T07:01:10;17.05;;;11.13;;
67274;SDS011;55463;52.324;5.122;2022-11-13T07:03:37;17.25;;;11.07;;
67274;SDS011;55463;52.324;5.122;2022-11-13T07:06:04;13.68;;;10.25;;
67274;SDS011;55463;52.324;5.122;2022-11-13T07:08:30;14.82;;;10.13;;
67274;SDS011;55463;52.324;5.122;2022-11-13T07:10:56;15.95;;;11.77;;
67274;SDS011;55463;52.324;5.122;2022-11-13T07:13:22;17.27;;;11.63;;
67274;SDS011;55463;52.324;5.122;2022-11-13T07:15:49;15.27;;;10.88;;
67274;SDS011;55463;52.324;5.122;2022-11-13T07:18:15;18.67;;;11.23;;
67274;SDS011;55463;52.324;5.122;2022-11-13T07:20:40;15.13;;;10.43;;
67274;SDS011;55463;52.324;5.122;2022-11-13T07:23:06;17.35;;;12.25;;
67274;SDS011;55463;52.324;5.122;2022-11-13T07:25:32;20.08;;;11.10;;
67274;SDS011;55463;52.324;5.122;2022-11-13T07:27:57;16.10;;;11.20;;
67274;SDS011;55463;52.324;5.122;2022-11-13T07:30:23;16.70;;;10.15;;
67274;SDS011;55463;52.324;5.122;2022-11-13T07:32:49;17.52;;;11.80;;
67274;SDS011;55463;52.324;5.122;2022-11-13T07:35:14;21.33;;;12.23;;
67274;SDS011;55463;52.324;5.122;2022-11-13T07:37:40;18.02;;;11.68;;
67274;SDS011;55463;52.324;5.122;2022-11-13T07:40:06;22.95;;;13.00;;
67274;SDS011;55463;52.324;5.122;2022-11-13T07:42:32;18.25;;;12.32;;
67274;SDS011;55463;52.324;5.122;2022-11-13T07:44:57;25.52;;;14.82;;
67274;SDS011;55463;52.324;5.122;2022-11-13T07:47:23;24.95;;;15.15;;
67274;SDS011;55463;52.324;5.122;2022-11-13T07:49:49;26.63;;;15.93;;
67274;SDS011;55463;52.324;5.122;2022-11-13T07:52:14;25.25;;;16.55;;
67274;SDS011;55463;52.324;5.122;2022-11-13T07:54:40;29.05;;;16.60;;
67274;SDS011;55463;52.324;5.122;2022-11-13T07:57:05;28.23;;;16.45;;
67274;SDS011;55463;52.324;5.122;2022-11-13T07:59:31;25.73;;;17.45;;
67274;SDS011;55463;52.324;5.122;2022-11-13T08:01:56;24.15;;;15.40;;
67274;SDS011;55463;52.324;5.122;2022-11-13T08:04:22;27.83;;;17.52;;
67274;SDS011;55463;52.324;5.122;2022-11-13T08:06:47;23.65;;;16.80;;
67274;SDS011;55463;52.324;5.122;2022-11-13T08:09:12;24.10;;;16.42;;
67274;SDS011;55463;52.324;5.122;2022-11-13T08:11:38;27.55;;;15.20;;
67274;SDS011;55463;52.324;5.122;2022-11-13T08:14:03;23.10;;;14.85;;
67274;SDS011;55463;52.324;5.122;2022-11-13T08:16:28;23.05;;;14.93;;
67274;SDS011;55463;52.324;5.122;2022-11-13T08:18:54;21.80;;;13.82;;
67274;SDS011;55463;52.324;5.122;2022-11-13T08:21:19;26.13;;;13.70;;
67274;SDS011;55463;52.324;5.122;2022-11-13T08:23:45;18.95;;;13.60;;
67274;SDS011;55463;52.324;5.122;2022-11-13T08:26:11;19.67;;;13.55;;
67274;SDS011;55463;52.324;5.122;2022-11-13T08:28:36;17.33;;;12.18;;
67274;SDS011;55463;52.324;5.122;2022-11-13T08:31:02;16.77;;;11.98;;
67274;SDS011;55463;52.324;5.122;2022-11-13T08:33:28;16.65;;;11.57;;
67274;SDS011;55463;52.324;5.122;2022-11-13T08:35:55;15.65;;;11.85;;
67274;SDS011;55463;52.324;5.122;2022-11-13T08:38:22;14.35;;;10.45;;
67274;SDS011;55463;52.324;5.122;2022-11-13T08:40:48;17.13;;;11.98;;
67274;SDS011;55463;52.324;5.122;2022-11-13T08:43:13;16.90;;;11.35;;
67274;SDS011;55463;52.324;5.122;2022-11-13T08:45:39;14.80;;;10.88;;
67274;SDS011;55463;52.324;5.122;2022-11-13T08:48:04;16.70;;;11.55;;
67274;SDS011;55463;52.324;5.122;2022-11-13T08:50:31;15.57;;;11.38;;
67274;SDS011;55463;52.324;5.122;2022-11-13T08:52:58;15.65;;;10.75;;
67274;SDS011;55463;52.324;5.122;2022-11-13T08:55:24;15.20;;;9.50;;
67274;SDS011;55463;52.324;5.122;2022-11-13T08:57:51;15.88;;;9.90;;
67274;SDS011;55463;52.324;5.122;2022-11-13T09:00:16;14.02;;;10.55;;
67274;SDS011;55463;52.324;5.122;2022-11-13T09:02:42;12.23;;;9.10;;
67274;SDS011;55463;52.324;5.122;2022-11-13T09:05:08;13.48;;;9.57;;
67274;SDS011;55463;52.324;5.122;2022-11-13T09:07:34;13.65;;;9.25;;
67274;SDS011;55463;52.324;5.122;2022-11-13T09:09:59;12.30;;;9.30;;
67274;SDS011;55463;52.324;5.122;2022-11-13T09:12:24;12.05;;;8.38;;
67274;SDS011;55463;52.324;5.122;2022-11-13T09:14:50;11.45;;;8.32;;
67274;SDS011;55463;52.324;5.122;2022-11-13T09:17:16;11.90;;;8.52;;
67274;SDS011;55463;52.324;5.122;2022-11-13T09:19:41;12.38;;;9.05;;
67274;SDS011;55463;52.324;5.122;2022-11-13T09:22:07;10.52;;;8.68;;
67274;SDS011;55463;52.324;5.122;2022-11-13T09:24:32;14.85;;;9.18;;
67274;SDS011;55463;52.324;5.122;2022-11-13T09:26:58;11.73;;;9.23;;
67274;SDS011;55463;52.324;5.122;2022-11-13T09:29:23;14.02;;;9.00;;
67274;SDS011;55463;52.324;5.122;2022-11-13T09:31:51;12.65;;;9.00;;
67274;SDS011;55463;52.324;5.122;2022-11-13T09:34:16;14.10;;;9.25;;
67274;SDS011;55463;52.324;5.122;2022-11-13T09:36:41;10.70;;;8.32;;
67274;SDS011;55463;52.324;5.122;2022-11-13T09:39:07;11.43;;;8.63;;
67274;SDS011;55463;52.324;5.122;2022-11-13T09:44:38;13.60;;;9.30;;
67274;SDS011;55463;52.324;5.122;2022-11-13T09:47:13;13.40;;;9.68;;
67274;SDS011;55463;52.324;5.122;2022-11-13T09:49:45;16.85;;;10.18;;
67274;SDS011;55463;52.324;5.122;2022-11-13T09:52:16;14.38;;;10.30;;
67274;SDS011;55463;52.324;5.122;2022-11-13T09:54:45;13.38;;;9.25;;
67274;SDS011;55463;52.324;5.122;2022-11-13T09:57:23;14.50;;;10.05;;
67274;SDS011;55463;52.324;5.122;2022-11-13T10:00:11;11.85;;;9.38;;
67274;SDS011;55463;52.324;5.122;2022-11-13T10:05:44;12.73;;;8.73;;
67274;SDS011;55463;52.324;5.122;2022-11-13T10:08:34;11.13;;;8.75;;
67274;SDS011;55463;52.324;5.122;2022-11-13T10:11:37;13.07;;;9.48;;
67274;SDS011;55463;52.324;5.122;2022-11-13T10:14:11;14.27;;;9.05;;
67274;SDS011;55463;52.324;5.122;2022-11-13T10:17:05;14.80;;;8.52;;
67274;SDS011;55463;52.324;5.122;2022-11-13T10:22:28;13.25;;;8.95;;
67274;SDS011;55463;52.324;5.122;2022-11-13T10:25:20;13.35;;;8.95;;
67274;SDS011;55463;52.324;5.122;2022-11-13T10:27:55;11.18;;;8.20;;
67274;SDS011;55463;52.324;5.122;2022-11-13T10:30:22;12.07;;;7.78;;
67274;SDS011;55463;52.324;5.122;2022-11-13T10:32:48;10.60;;;7.22;;
67274;SDS011;55463;52.324;5.122;2022-11-13T10:40:24;11.43;;;7.65;;
67274;SDS011;55463;52.324;5.122;2022-11-13T10:42:50;15.10;;;7.22;;
67274;SDS011;55463;52.324;5.122;2022-11-13T10:45:17;13.82;;;8.25;;
67274;SDS011;55463;52.324;5.122;2022-11-13T10:47:47;11.23;;;7.15;;
67274;SDS011;55463;52.324;5.122;2022-11-13T10:50:18;10.45;;;7.35;;
67274;SDS011;55463;52.324;5.122;2022-11-13T10:52:47;10.10;;;7.28;;
67274;SDS011;55463;52.324;5.122;2022-11-13T10:57:55;10.38;;;7.55;;
67274;SDS011;55463;52.324;5.122;2022-11-13T11:00:24;13.32;;;7.47;;
67274;SDS011;55463;52.324;5.122;2022-11-13T11:02:57;12.90;;;7.75;;
67274;SDS011;55463;52.324;5.122;2022-11-13T11:05:23;11.45;;;7.47;;
67274;SDS011;55463;52.324;5.122;2022-11-13T11:07:50;13.40;;;7.32;;
67274;SDS011;55463;52.324;5.122;2022-11-13T11:12:51;10.80;;;7.47;;
67274;SDS011;55463;52.324;5.122;2022-11-13T11:15:22;13.50;;;7.15;;
67274;SDS011;55463;52.324;5.122;2022-11-13T11:18:02;12.85;;;7.22;;
67274;SDS011;55463;52.324;5.122;2022-11-13T11:23:18;12.73;;;7.00;;
67274;SDS011;55463;52.324;5.122;2022-11-13T11:28:38;10.93;;;7.03;;
67274;SDS011;55463;52.324;5.122;2022-11-13T11:31:25;9.05;;;6.40;;
67274;SDS011;55463;52.324;5.122;2022-11-13T11:33:59;9.05;;;6.60;;
67274;SDS011;55463;52.324;5.122;2022-11-13T11:36:35;10.20;;;6.47;;
67274;SDS011;55463;52.324;5.122;2022-11-13T11:41:43;10.63;;;6.78;;
67274;SDS011;55463;52.324;5.122;2022-11-13T11:44:24;10.90;;;6.10;;
67274;SDS011;55463;52.324;5.122;2022-11-13T11:46:55;9.35;;;6.03;;
67274;SDS011;55463;52.324;5.122;2022-11-13T11:49:20;9.88;;;5.93;;
67274;SDS011;55463;52.324;5.122;2022-11-13T11:51:56;7.70;;;5.57;;
67274;SDS011;55463;52.324;5.122;2022-11-13T11:54:41;7.70;;;5.38;;
67274;SDS011;55463;52.324;5.122;2022-11-13T11:57:19;9.35;;;5.57;;
67274;SDS011;55463;52.324;5.122;2022-11-13T12:00:04;8.60;;;6.00;;
67274;SDS011;55463;52.324;5.122;2022-11-13T12:05:31;8.85;;;5.85;;
67274;SDS011;55463;52.324;5.122;2022-11-13T12:08:19;10.02;;;6.15;;
67274;SDS011;55463;52.324;5.122;2022-11-13T12:11:11;9.30;;;6.13;;
67274;SDS011;55463;52.324;5.122;2022-11-13T12:22:15;8.52;;;5.93;;
67274;SDS011;55463;52.324;5.122;2022-11-13T12:30:56;11.13;;;6.60;;
67274;SDS011;55463;52.324;5.122;2022-11-13T12:36:01;10.05;;;6.68;;
67274;SDS011;55463;52.324;5.122;2022-11-13T12:41:11;10.43;;;6.95;;
67274;SDS011;55463;52.324;5.122;2022-11-13T12:46:39;10.18;;;6.78;;
67274;SDS011;55463;52.324;5.122;2022-11-13T12:54:24;8.40;;;6.25;;
67274;SDS011;55463;52.324;5.122;2022-11-13T12:57:05;10.93;;;6.38;;
67274;SDS011;55463;52.324;5.122;2022-11-13T12:59:40;11.85;;;6.28;;
67274;SDS011;55463;52.324;5.122;2022-11-13T13:10:22;7.07;;;5.35;;
67274;SDS011;55463;52.324;5.122;2022-11-13T13:13:17;15.55;;;6.18;;
67274;SDS011;55463;52.324;5.122;2022-11-13T13:15:57;9.80;;;6.60;;
67274;SDS011;55463;52.324;5.122;2022-11-13T13:18:26;12.60;;;6.28;;
67274;SDS011;55463;52.324;5.122;2022-11-13T13:21:11;14.70;;;6.57;;
67274;SDS011;55463;52.324;5.122;2022-11-13T13:23:40;9.82;;;5.97;;
67274;SDS011;55463;52.324;5.122;2022-11-13T13:26:18;7.65;;;6.07;;
67274;SDS011;55463;52.324;5.122;2022-11-13T13:28:56;12.05;;;6.20;;
67274;SDS011;55463;52.324;5.122;2022-11-13T13:50:33;8.95;;;5.85;;
67274;SDS011;55463;52.324;5.122;2022-11-13T13:53:07;12.70;;;5.50;;
67274;SDS011;55463;52.324;5.122;2022-11-13T13:55:36;8.52;;;5.70;;
67274;SDS011;55463;52.324;5.122;2022-11-13T13:58:12;8.75;;;6.18;;
67274;SDS011;55463;52.324;5.122;2022-11-13T14:00:40;7.88;;;5.80;;
67274;SDS011;55463;52.324;5.122;2022-11-13T14:03:15;10.77;;;5.70;;
67274;SDS011;55463;52.324;5.122;2022-11-13T14:05:44;6.53;;;5.45;;
67274;SDS011;55463;52.324;5.122;2022-11-13T14:08:16;7.30;;;5.50;;
67274;SDS011;55463;52.324;5.122;2022-11-13T14:10:42;6.50;;;5.20;;
67274;SDS011;55463;52.324;5.122;2022-11-13T14:13:11;6.68;;;5.13;;
67274;SDS011;55463;52.324;5.122;2022-11-13T14:15:37;7.63;;;5.20;;
67274;SDS011;55463;52.324;5.122;2022-11-13T14:18:12;7.88;;;5.18;;
67274;SDS011;55463;52.324;5.122;2022-11-13T14:20:46;8.50;;;5.30;;
67274;SDS011;55463;52.324;5.122;2022-11-13T14:23:38;9.65;;;5.00;;
67274;SDS011;55463;52.324;5.122;2022-11-13T14:26:04;6.82;;;4.82;;
67274;SDS011;55463;52.324;5.122;2022-11-13T14:28:31;11.05;;;5.40;;
67274;SDS011;55463;52.324;5.122;2022-11-13T14:31:04;8.05;;;5.75;;
67274;SDS011;55463;52.324;5.122;2022-11-13T14:33:37;10.32;;;5.45;;
67274;SDS011;55463;52.324;5.122;2022-11-13T14:36:06;10.25;;;4.70;;
67274;SDS011;55463;52.324;5.122;2022-11-13T14:38:33;7.25;;;4.93;;
67274;SDS011;55463;52.324;5.122;2022-11-13T14:41:00;7.75;;;4.70;;
67274;SDS011;55463;52.324;5.122;2022-11-13T14:43:30;6.88;;;4.60;;
67274;SDS011;55463;52.324;5.122;2022-11-13T14:45:59;6.20;;;4.85;;
67274;SDS011;55463;52.324;5.122;2022-11-13T14:48:27;9.15;;;4.53;;
67274;SDS011;55463;52.324;5.122;2022-11-13T14:51:00;10.02;;;4.82;;
67274;SDS011;55463;52.324;5.122;2022-11-13T14:53:37;7.10;;;4.45;;
67274;SDS011;55463;52.324;5.122;2022-11-13T14:56:07;6.40;;;5.00;;
67274;SDS011;55463;52.324;5.122;2022-11-13T15:01:17;6.38;;;4.82;;
67274;SDS011;55463;52.324;5.122;2022-11-13T15:03:45;7.90;;;4.80;;
67274;SDS011;55463;52.324;5.122;2022-11-13T15:06:22;9.93;;;5.22;;
67274;SDS011;55463;52.324;5.122;2022-11-13T15:08:49;11.65;;;5.55;;
67274;SDS011;55463;52.324;5.122;2022-11-13T15:11:18;11.07;;;6.15;;
67274;SDS011;55463;52.324;5.122;2022-11-13T15:13:46;8.63;;;5.80;;
67274;SDS011;55463;52.324;5.122;2022-11-13T15:16:12;8.60;;;6.10;;
67274;SDS011;55463;52.324;5.122;2022-11-13T15:18:42;13.55;;;7.10;;
67274;SDS011;55463;52.324;5.122;2022-11-13T15:21:12;18.52;;;10.57;;
67274;SDS011;55463;52.324;5.122;2022-11-13T15:23:37;16.73;;;10.68;;
67274;SDS011;55463;52.324;5.122;2022-11-13T15:26:02;22.15;;;11.35;;
67274;SDS011;55463;52.324;5.122;2022-11-13T15:28:28;18.73;;;9.77;;
67274;SDS011;55463;52.324;5.122;2022-11-13T15:30:53;8.93;;;6.35;;
67274;SDS011;55463;52.324;5.122;2022-11-13T15:33:19;11.25;;;7.50;;
67274;SDS011;55463;52.324;5.122;2022-11-13T15:35:44;11.02;;;6.43;;
67274;SDS011;55463;52.324;5.122;2022-11-13T15:38:09;14.70;;;7.50;;
67274;SDS011;55463;52.324;5.122;2022-11-13T15:40:36;12.30;;;7.78;;
67274;SDS011;55463;52.324;5.122;2022-11-13T15:43:02;12.90;;;8.38;;
67274;SDS011;55463;52.324;5.122;2022-11-13T15:45:28;12.10;;;8.45;;
67274;SDS011;55463;52.324;5.122;2022-11-13T15:47:54;13.88;;;8.00;;
67274;SDS011;55463;52.324;5.122;2022-11-13T15:50:19;12.00;;;7.40;;
67274;SDS011;55463;52.324;5.122;2022-11-13T15:52:46;10.73;;;7.30;;
67274;SDS011;55463;52.324;5.122;2022-11-13T15:55:24;11.90;;;7.53;;
67274;SDS011;55463;52.324;5.122;2022-11-13T15:57:53;9.73;;;6.95;;
67274;SDS011;55463;52.324;5.122;2022-11-13T16:00:22;11.95;;;6.68;;
67274;SDS011;55463;52.324;5.122;2022-11-13T16:02:49;14.77;;;7.65;;
67274;SDS011;55463;52.324;5.122;2022-11-13T16:05:16;11.63;;;6.72;;
67274;SDS011;55463;52.324;5.122;2022-11-13T16:07:41;11.25;;;6.90;;
67274;SDS011;55463;52.324;5.122;2022-11-13T16:10:10;9.10;;;6.13;;
67274;SDS011;55463;52.324;5.122;2022-11-13T16:12:36;8.15;;;5.00;;